createdAt,value
2017-09-18T00:02:17.799Z,8.00
2017-09-18T00:04:47.427Z,9.23
2017-09-18T00:07:16.127Z,7.33
2017-09-18T00:09:44.410Z,8.20
2017-09-18T00:12:13.459Z,6.70
2017-09-18T00:14:41.810Z,6.80
2017-09-18T00:17:10.107Z,7.83
2017-09-18T00:19:39.163Z,8.03
2017-09-18T00:22:08.875Z,9.33
2017-09-18T00:24:37.422Z,9.27
2017-09-18T00:27:06.099Z,9.43
2017-09-18T00:29:37.406Z,9.37
2017-09-18T00:32:06.471Z,8.20
2017-09-18T00:34:34.755Z,11.00
2017-09-18T00:37:05.371Z,9.67
2017-09-18T00:39:33.519Z,9.90
2017-09-18T00:42:02.195Z,9.33
2017-09-18T00:44:31.875Z,9.80
2017-09-18T00:47:01.388Z,9.43
2017-09-18T00:49:29.943Z,9.90
2017-09-18T00:51:58.676Z,8.83
2017-09-18T00:54:26.991Z,9.67
2017-09-18T00:56:55.308Z,9.53
2017-09-18T00:59:23.668Z,9.93
2017-09-18T01:01:51.946Z,11.07
2017-09-18T01:04:20.230Z,11.33
2017-09-18T01:06:49.909Z,10.33
2017-09-18T01:09:18.067Z,10.80
2017-09-18T01:11:47.698Z,9.90
2017-09-18T01:14:16.314Z,11.60
2017-09-18T01:16:45.767Z,10.17
2017-09-18T01:19:14.820Z,10.60
2017-09-18T01:21:43.168Z,10.47
2017-09-18T01:24:11.496Z,10.27
2017-09-18T01:29:39.643Z,13.03
2017-09-18T01:32:09.299Z,12.90
2017-09-18T01:34:38.241Z,11.20
2017-09-18T01:37:06.596Z,11.57
2017-09-18T01:39:35.119Z,9.90
2017-09-18T01:42:03.431Z,10.57
2017-09-18T01:44:31.814Z,10.50
2017-09-18T01:47:01.268Z,10.33
2017-09-18T01:49:29.559Z,8.10
2017-09-18T01:51:57.925Z,7.93
2017-09-18T01:54:27.730Z,9.33
2017-09-18T01:56:57.531Z,8.50
2017-09-18T01:59:29.899Z,8.17
2017-09-18T02:01:58.578Z,8.57
2017-09-18T02:04:26.866Z,8.03
2017-09-18T02:06:55.210Z,10.40
2017-09-18T02:09:23.496Z,7.87
2017-09-18T02:11:52.543Z,7.43
2017-09-18T02:14:22.454Z,8.90
2017-09-18T02:16:50.735Z,9.30
2017-09-18T02:19:19.015Z,8.73
2017-09-18T02:21:47.362Z,8.50
2017-09-18T02:24:15.644Z,11.37
2017-09-18T02:26:43.947Z,7.93
2017-09-18T02:29:12.288Z,8.80
2017-09-18T02:31:41.380Z,8.00
2017-09-18T02:34:10.516Z,10.97
2017-09-18T02:36:39.987Z,8.43
2017-09-18T02:39:08.277Z,9.37
2017-09-18T02:41:36.560Z,7.73
2017-09-18T02:44:06.860Z,8.87
2017-09-18T02:46:35.139Z,9.57
2017-09-18T02:49:04.926Z,8.80
2017-09-18T02:51:34.414Z,9.83
2017-09-18T02:54:03.464Z,9.93
2017-09-18T02:56:32.506Z,10.13
2017-09-18T02:59:00.839Z,10.43
2017-09-18T03:01:30.623Z,9.80
2017-09-18T03:03:58.910Z,10.43
2017-09-18T03:06:27.641Z,10.37
2017-09-18T03:08:55.927Z,24.23
2017-09-18T03:11:25.352Z,9.70
2017-09-18T03:13:54.087Z,10.40
2017-09-18T03:16:23.507Z,10.90
2017-09-18T03:18:51.791Z,11.53
2017-09-18T03:21:20.130Z,9.90
2017-09-18T03:23:48.411Z,12.33
2017-09-18T03:26:16.700Z,10.47
2017-09-18T03:28:45.050Z,14.40
2017-09-18T03:31:14.851Z,11.43
2017-09-18T03:33:43.161Z,12.27
2017-09-18T03:36:12.272Z,14.10
2017-09-18T03:38:40.578Z,10.83
2017-09-18T03:41:10.391Z,10.27
2017-09-18T03:43:39.057Z,10.30
2017-09-18T03:46:08.522Z,11.57
2017-09-18T03:48:36.820Z,10.90
2017-09-18T03:51:05.163Z,9.93
2017-09-18T03:53:34.248Z,10.47
2017-09-18T03:56:03.283Z,11.27
2017-09-18T03:58:31.615Z,11.40
2017-09-18T04:00:59.899Z,10.50
2017-09-18T04:03:28.197Z,10.50
2017-09-18T04:05:56.538Z,10.87
2017-09-18T04:08:25.586Z,11.27
2017-09-18T04:10:53.884Z,10.93
2017-09-18T04:13:22.971Z,11.47
2017-09-18T04:15:52.014Z,9.67
2017-09-18T04:18:20.291Z,11.00
2017-09-18T04:20:48.619Z,10.17
2017-09-18T04:23:16.903Z,11.77
2017-09-18T04:25:45.209Z,10.43
2017-09-18T04:28:13.580Z,11.10
2017-09-18T04:30:42.655Z,12.20
2017-09-18T04:33:10.959Z,10.90
2017-09-18T04:35:39.338Z,11.23
2017-09-18T04:38:07.628Z,11.40
2017-09-18T04:40:35.913Z,10.93
2017-09-18T04:43:05.048Z,11.10
2017-09-18T04:45:34.094Z,10.90
2017-09-18T04:48:02.382Z,9.63
2017-09-18T04:50:30.703Z,10.47
2017-09-18T04:52:59.762Z,10.00
2017-09-18T04:55:28.842Z,11.70
2017-09-18T04:57:57.167Z,10.40
2017-09-18T05:00:26.578Z,10.33
2017-09-18T05:02:56.227Z,11.83
2017-09-18T05:05:25.795Z,10.23
2017-09-18T05:07:54.343Z,10.37
2017-09-18T05:10:22.636Z,12.63
2017-09-18T05:12:51.731Z,12.03
2017-09-18T05:15:20.787Z,16.57
2017-09-18T05:17:49.834Z,19.57
2017-09-18T05:20:18.171Z,19.20
2017-09-18T05:22:47.237Z,23.03
2017-09-18T05:25:15.541Z,20.70
2017-09-18T05:27:43.932Z,18.70
2017-09-18T05:30:13.399Z,18.77
2017-09-18T05:32:43.052Z,18.93
2017-09-18T05:35:11.696Z,21.33
2017-09-18T05:37:40.767Z,16.87
2017-09-18T05:40:10.597Z,13.43
2017-09-18T05:42:40.123Z,14.20
2017-09-18T05:45:08.416Z,13.37
2017-09-18T05:47:36.703Z,12.73
2017-09-18T05:50:05.034Z,13.43
2017-09-18T05:52:34.455Z,10.63
2017-09-18T05:55:03.508Z,10.37
2017-09-18T05:57:32.604Z,10.60
2017-09-18T06:00:01.656Z,11.50
2017-09-18T06:02:29.948Z,12.10
2017-09-18T06:04:59.650Z,10.27
2017-09-18T06:07:29.158Z,10.83
2017-09-18T06:09:57.715Z,9.87
2017-09-18T06:12:26.051Z,9.27
2017-09-18T06:14:55.467Z,9.20
2017-09-18T06:17:24.512Z,10.70
2017-09-18T06:19:53.632Z,10.03
2017-09-18T06:22:21.916Z,10.57
2017-09-18T06:24:51.709Z,10.23
2017-09-18T06:27:20.427Z,9.67
2017-09-18T06:29:49.855Z,9.93
2017-09-18T06:32:18.150Z,10.80
2017-09-18T06:34:46.535Z,10.50
2017-09-18T06:37:15.596Z,11.20
2017-09-18T06:39:45.402Z,10.93
2017-09-18T06:42:13.750Z,10.73
2017-09-18T06:44:43.179Z,10.13
2017-09-18T06:47:11.515Z,11.73
2017-09-18T06:49:41.378Z,10.40
2017-09-18T06:52:10.481Z,13.50
2017-09-18T06:54:39.166Z,10.80
2017-09-18T06:57:08.271Z,12.20
2017-09-18T06:59:37.899Z,9.37
2017-09-18T07:02:06.819Z,10.33
2017-09-18T07:04:35.538Z,10.37
2017-09-18T07:07:03.820Z,10.23
2017-09-18T07:09:33.455Z,9.43
2017-09-18T07:12:02.062Z,10.07
2017-09-18T07:14:30.346Z,11.20
2017-09-18T07:16:58.630Z,9.77
2017-09-18T07:19:26.950Z,9.63
2017-09-18T07:21:55.226Z,9.53
2017-09-18T07:24:23.502Z,10.00
2017-09-18T07:26:51.826Z,12.40
2017-09-18T07:29:21.251Z,11.93
2017-09-18T07:31:49.543Z,11.33
2017-09-18T07:34:19.022Z,11.43
2017-09-18T07:36:48.660Z,13.77
2017-09-18T07:39:17.219Z,11.20
2017-09-18T07:41:46.898Z,12.20
2017-09-18T07:44:15.461Z,12.70
2017-09-18T07:46:43.768Z,12.80
2017-09-18T07:49:12.164Z,12.17
2017-09-18T07:51:40.486Z,12.77
2017-09-18T07:54:09.937Z,13.73
2017-09-18T07:56:39.083Z,15.37
2017-09-18T07:59:08.131Z,14.23
2017-09-18T08:01:36.432Z,15.30
2017-09-18T08:04:04.787Z,15.87
2017-09-18T08:06:33.067Z,14.73
2017-09-18T08:09:01.355Z,14.47
2017-09-18T08:11:29.711Z,16.10
2017-09-18T08:13:59.343Z,15.57
2017-09-18T08:16:27.512Z,16.33
2017-09-18T08:18:55.852Z,15.40
2017-09-18T08:21:24.131Z,15.00
2017-09-18T08:23:53.187Z,15.27
2017-09-18T08:26:21.524Z,15.93
2017-09-18T08:28:50.570Z,16.83
2017-09-18T08:31:19.618Z,15.07
2017-09-18T08:33:48.008Z,16.60
2017-09-18T08:36:16.305Z,14.90
2017-09-18T08:38:45.722Z,17.90
2017-09-18T08:41:14.077Z,18.40
2017-09-18T08:43:42.373Z,17.10
2017-09-18T08:46:10.666Z,16.70
2017-09-18T08:48:39.055Z,19.20
2017-09-18T08:51:07.346Z,18.43
2017-09-18T08:53:37.144Z,27.10
2017-09-18T08:56:05.478Z,21.60
2017-09-18T08:58:33.764Z,22.77
2017-09-18T09:01:02.072Z,22.00
2017-09-18T09:03:31.792Z,20.70
2017-09-18T09:06:01.307Z,21.60
2017-09-18T09:08:29.474Z,25.50
2017-09-18T09:10:57.812Z,21.63
2017-09-18T09:13:27.237Z,19.77
2017-09-18T09:15:55.514Z,20.10
2017-09-18T09:18:23.868Z,25.40
2017-09-18T09:20:52.155Z,25.40
2017-09-18T09:23:20.445Z,24.80
2017-09-18T09:25:48.799Z,24.17
2017-09-18T09:28:18.438Z,26.47
2017-09-18T09:30:46.616Z,27.13
2017-09-18T09:33:14.953Z,25.70
2017-09-18T09:35:43.288Z,24.13
2017-09-18T09:38:11.627Z,25.33
2017-09-18T09:40:40.726Z,27.70
2017-09-18T09:43:09.804Z,25.30
2017-09-18T09:45:38.856Z,26.77
2017-09-18T09:48:08.582Z,24.20
2017-09-18T09:50:37.140Z,27.07
2017-09-18T09:53:06.774Z,27.43
2017-09-18T09:55:35.403Z,25.07
2017-09-18T09:58:05.199Z,23.50
2017-09-18T10:00:34.247Z,20.07
2017-09-18T10:03:02.575Z,16.57
2017-09-18T10:05:32.375Z,17.73
2017-09-18T10:08:00.658Z,18.40
2017-09-18T10:10:29.002Z,20.27
2017-09-18T10:12:58.451Z,21.70
2017-09-18T10:15:28.102Z,22.87
2017-09-18T10:17:56.319Z,23.80
2017-09-18T10:20:25.950Z,23.57
2017-09-18T10:22:55.610Z,23.30
2017-09-18T10:25:24.716Z,24.47
2017-09-18T10:27:53.007Z,21.57
2017-09-18T10:30:21.295Z,24.20
2017-09-18T10:32:51.176Z,23.97
2017-09-18T10:35:19.475Z,25.70
2017-09-18T10:37:47.777Z,27.90
2017-09-18T10:40:17.272Z,23.40
2017-09-18T10:42:45.597Z,23.80
2017-09-18T10:45:14.654Z,23.87
2017-09-18T10:47:43.754Z,22.70
2017-09-18T10:50:12.055Z,21.20
2017-09-18T10:52:40.364Z,21.83
2017-09-18T10:55:08.750Z,19.27
2017-09-18T10:57:37.070Z,19.60
2017-09-18T11:00:06.126Z,19.23
2017-09-18T11:02:34.462Z,20.10
2017-09-18T11:05:03.515Z,19.63
2017-09-18T11:07:32.571Z,18.40
2017-09-18T11:10:02.051Z,18.27
2017-09-18T11:12:31.111Z,19.13
2017-09-18T11:14:59.403Z,20.43
2017-09-18T11:17:28.894Z,18.03
2017-09-18T11:19:57.958Z,17.87
2017-09-18T11:22:27.011Z,20.00
2017-09-18T11:24:55.344Z,16.40
2017-09-18T11:27:23.634Z,18.10
2017-09-18T11:29:53.290Z,17.53
2017-09-18T11:32:21.935Z,17.73
2017-09-18T11:34:50.615Z,16.40
2017-09-18T11:37:20.259Z,16.80
2017-09-18T11:39:48.879Z,15.83
2017-09-18T11:42:17.972Z,17.23
2017-09-18T11:44:47.035Z,16.97
2017-09-18T11:47:16.181Z,18.37
2017-09-18T11:49:44.509Z,19.07
2017-09-18T11:52:12.846Z,18.50
2017-09-18T11:54:41.194Z,17.43
2017-09-18T11:57:10.625Z,15.90
2017-09-18T11:59:38.922Z,16.83
2017-09-18T12:02:07.278Z,16.67
2017-09-18T12:04:35.565Z,15.80
2017-09-18T12:07:03.873Z,14.23
2017-09-18T12:09:32.202Z,14.73
2017-09-18T12:12:01.627Z,15.37
2017-09-18T12:14:29.919Z,17.00
2017-09-18T12:16:58.246Z,13.03
2017-09-18T12:19:26.539Z,11.20
2017-09-18T12:21:54.815Z,9.87
2017-09-18T12:24:23.159Z,8.97
2017-09-18T12:26:52.940Z,8.03
2017-09-18T12:29:21.219Z,11.43
2017-09-18T12:31:49.547Z,8.37
2017-09-18T12:34:18.223Z,6.83
2017-09-18T12:36:46.494Z,6.67
2017-09-18T12:39:14.845Z,5.60
2017-09-18T12:41:43.138Z,5.80
2017-09-18T12:44:11.466Z,6.60
2017-09-18T12:46:40.532Z,6.77
2017-09-18T12:49:09.211Z,5.90
2017-09-18T12:51:37.493Z,6.57
2017-09-18T12:54:05.827Z,6.43
2017-09-18T12:56:35.615Z,4.93
2017-09-18T12:59:04.676Z,5.03
2017-09-18T13:01:34.147Z,4.87
2017-09-18T13:04:02.430Z,5.40
2017-09-18T13:06:30.699Z,4.07
2017-09-18T13:09:00.154Z,3.97
2017-09-18T13:11:28.430Z,2.70
2017-09-18T13:13:58.215Z,3.07
2017-09-18T13:16:26.539Z,2.80
2017-09-18T13:18:54.815Z,7.00
2017-09-18T13:21:23.088Z,2.30
2017-09-18T13:23:51.408Z,4.53
2017-09-18T13:26:20.819Z,4.90
2017-09-18T13:28:49.099Z,3.90
2017-09-18T13:31:19.689Z,5.50
2017-09-18T13:33:49.347Z,5.20
2017-09-18T13:36:17.648Z,4.60
2017-09-18T13:38:46.020Z,4.40
2017-09-18T13:41:14.338Z,4.10
2017-09-18T13:43:42.666Z,5.80
2017-09-18T13:46:11.823Z,4.77
2017-09-18T13:48:40.532Z,4.73
2017-09-18T13:51:08.873Z,8.80
2017-09-18T13:53:37.962Z,4.50
2017-09-18T13:56:06.240Z,2.80
2017-09-18T13:58:34.514Z,2.03
2017-09-18T14:01:02.845Z,2.50
2017-09-18T14:03:31.110Z,2.40
2017-09-18T14:05:59.386Z,2.97
2017-09-18T14:08:27.743Z,2.50
2017-09-18T14:10:56.912Z,3.07
2017-09-18T14:13:25.195Z,3.43
2017-09-18T14:15:53.517Z,4.73
2017-09-18T14:18:21.782Z,3.90
2017-09-18T14:20:50.058Z,4.07
2017-09-18T14:23:18.410Z,4.50
2017-09-18T14:25:46.707Z,3.60
2017-09-18T14:28:15.381Z,3.73
2017-09-18T14:30:43.721Z,3.60
2017-09-18T14:33:12.088Z,3.77
2017-09-18T14:35:41.890Z,3.73
2017-09-18T14:38:10.233Z,2.27
2017-09-18T14:40:38.551Z,2.00
2017-09-18T14:43:06.847Z,2.63
2017-09-18T14:45:35.258Z,3.00
2017-09-18T14:48:04.311Z,2.13
2017-09-18T14:50:33.359Z,2.60
2017-09-18T14:53:02.858Z,3.90
2017-09-18T14:55:31.150Z,4.37
2017-09-18T14:57:59.431Z,4.77
2017-09-18T15:00:27.786Z,4.07
2017-09-18T15:02:56.060Z,5.27
2017-09-18T15:05:25.107Z,6.93
2017-09-18T15:07:54.572Z,6.40
2017-09-18T15:10:23.246Z,7.03
2017-09-18T15:12:51.523Z,7.30
2017-09-18T15:15:19.855Z,8.20
2017-09-18T15:17:48.136Z,3.93
2017-09-18T15:20:16.411Z,3.73
2017-09-18T15:22:46.102Z,5.80
2017-09-18T15:25:14.272Z,3.80
2017-09-18T15:27:42.576Z,5.00
2017-09-18T15:30:12.427Z,5.17
2017-09-18T15:32:40.727Z,3.83
2017-09-18T15:35:09.807Z,4.23
2017-09-18T15:37:39.173Z,3.97
2017-09-18T15:40:07.457Z,3.20
2017-09-18T15:42:37.235Z,3.00
2017-09-18T15:45:05.562Z,4.80
2017-09-18T15:47:36.495Z,5.40
2017-09-18T15:50:05.191Z,3.30
2017-09-18T15:52:33.511Z,3.47
2017-09-18T15:55:02.551Z,3.20
2017-09-18T15:57:31.609Z,4.13
2017-09-18T16:00:00.307Z,3.93
2017-09-18T16:02:29.728Z,4.00
2017-09-18T16:04:58.007Z,4.13
2017-09-18T16:07:26.619Z,25.93
2017-09-18T16:09:56.035Z,6.00
2017-09-18T16:12:24.319Z,3.70
2017-09-18T16:14:52.650Z,3.20
2017-09-18T16:17:20.927Z,3.17
2017-09-18T16:19:49.220Z,5.20
2017-09-18T16:22:17.587Z,3.37
2017-09-18T16:24:45.887Z,3.03
2017-09-18T16:27:15.319Z,3.20
2017-09-18T16:29:43.642Z,3.43
2017-09-18T16:32:11.949Z,3.53
2017-09-18T16:34:41.123Z,2.80
2017-09-18T16:37:10.865Z,2.90
2017-09-18T16:39:39.529Z,3.33
2017-09-18T16:42:07.807Z,2.73
2017-09-18T16:44:37.651Z,2.50
2017-09-18T16:47:05.927Z,3.37
2017-09-18T16:49:34.212Z,3.80
2017-09-18T16:52:02.559Z,3.70
2017-09-18T16:54:31.227Z,3.00
2017-09-18T16:57:00.283Z,3.20
2017-09-18T16:59:28.625Z,3.43
2017-09-18T17:01:56.902Z,3.60
2017-09-18T17:04:25.185Z,3.43
2017-09-18T17:06:53.515Z,3.60
2017-09-18T17:09:23.307Z,3.47
2017-09-18T17:11:51.583Z,2.60
2017-09-18T17:14:21.258Z,2.70
2017-09-18T17:16:50.763Z,3.67
2017-09-18T17:19:19.320Z,2.60
2017-09-18T17:21:47.671Z,24.17
2017-09-18T17:24:16.749Z,4.73
2017-09-18T17:26:45.802Z,4.77
2017-09-18T17:29:14.175Z,4.60
2017-09-18T17:31:43.617Z,5.20
2017-09-18T17:34:11.924Z,6.47
2017-09-18T17:36:40.292Z,5.70
2017-09-18T17:39:09.691Z,5.63
2017-09-18T17:41:38.375Z,7.00
2017-09-18T17:44:06.703Z,6.57
2017-09-18T17:46:34.979Z,4.57
2017-09-18T17:49:04.606Z,5.40
2017-09-18T17:51:33.594Z,5.30
2017-09-18T17:54:01.880Z,5.20
2017-09-18T17:56:31.678Z,5.33
2017-09-18T17:59:01.147Z,6.63
2017-09-18T18:01:30.191Z,4.60
2017-09-18T18:03:59.226Z,5.57
2017-09-18T18:06:28.908Z,6.07
2017-09-18T18:08:57.458Z,5.73
2017-09-18T18:11:25.735Z,5.57
2017-09-18T18:13:54.076Z,5.20
2017-09-18T18:16:23.859Z,6.50
2017-09-18T18:18:52.144Z,5.40
2017-09-18T18:21:20.479Z,7.27
2017-09-18T18:23:48.756Z,5.10
2017-09-18T18:26:17.046Z,5.97
2017-09-18T18:28:45.410Z,5.53
2017-09-18T18:31:14.845Z,7.03
2017-09-18T18:33:43.145Z,4.73
2017-09-18T18:36:11.529Z,5.57
2017-09-18T18:38:39.831Z,5.90
2017-09-18T18:41:08.897Z,5.93
2017-09-18T18:43:38.003Z,5.80
2017-09-18T18:46:07.633Z,5.97
2017-09-18T18:48:37.285Z,5.50
2017-09-18T18:51:05.607Z,7.90
2017-09-18T18:53:34.699Z,6.07
2017-09-18T18:56:04.116Z,8.00
2017-09-18T18:58:32.447Z,9.13
2017-09-18T19:01:00.732Z,12.13
2017-09-18T19:03:29.019Z,14.10
2017-09-18T19:05:58.127Z,23.80
2017-09-18T19:08:26.415Z,17.80
2017-09-18T19:10:57.100Z,19.40
2017-09-18T19:13:25.430Z,20.97
2017-09-18T19:15:55.283Z,22.30
2017-09-18T19:18:23.585Z,22.63
2017-09-18T19:20:52.340Z,21.10
2017-09-18T19:23:21.982Z,21.90
2017-09-18T19:25:50.910Z,20.87
2017-09-18T19:28:20.421Z,23.03
2017-09-18T19:30:49.103Z,20.67
2017-09-18T19:33:17.390Z,30.60
2017-09-18T19:35:45.778Z,19.93
2017-09-18T19:38:14.080Z,18.63
2017-09-18T19:40:42.438Z,18.37
2017-09-18T19:43:10.808Z,18.00
2017-09-18T19:45:39.106Z,19.80
2017-09-18T19:48:08.918Z,16.30
2017-09-18T19:50:37.242Z,21.00
2017-09-18T19:53:06.887Z,14.83
2017-09-18T19:55:35.075Z,19.30
2017-09-18T19:58:03.738Z,16.27
2017-09-18T20:00:33.536Z,16.63
2017-09-18T20:03:02.626Z,14.50
2017-09-18T20:05:31.728Z,17.07
2017-09-18T20:08:00.064Z,16.77
2017-09-18T20:10:28.355Z,15.43
2017-09-18T20:12:57.095Z,19.87
2017-09-18T20:15:25.387Z,15.60
2017-09-18T20:17:53.671Z,14.33
2017-09-18T20:20:22.036Z,13.67
2017-09-18T20:22:50.327Z,13.03
2017-09-18T20:25:19.955Z,14.00
2017-09-18T20:27:48.562Z,13.90
2017-09-18T20:30:16.848Z,14.20
2017-09-18T20:32:46.268Z,14.17
2017-09-18T20:35:14.644Z,13.70
2017-09-18T20:37:42.973Z,13.13
2017-09-18T20:40:12.635Z,14.07
2017-09-18T20:42:41.243Z,14.13
2017-09-18T20:45:09.567Z,13.27
2017-09-18T20:47:37.855Z,15.20
2017-09-18T20:50:06.608Z,15.03
2017-09-18T20:52:34.887Z,14.17
2017-09-18T20:55:04.531Z,14.90
2017-09-18T20:57:32.786Z,16.10
2017-09-18T21:00:01.083Z,16.67
2017-09-18T21:02:29.402Z,19.73
2017-09-18T21:04:57.761Z,31.40
2017-09-18T21:07:26.063Z,20.13
2017-09-18T21:09:54.364Z,16.70
2017-09-18T21:12:24.071Z,17.60
2017-09-18T21:14:52.243Z,16.23
2017-09-18T21:17:20.531Z,17.37
2017-09-18T21:19:48.875Z,19.67
2017-09-18T21:22:17.943Z,20.43
2017-09-18T21:24:46.231Z,19.40
2017-09-18T21:27:15.366Z,19.13
2017-09-18T21:29:44.430Z,25.27
2017-09-18T21:32:14.078Z,21.83
2017-09-18T21:34:43.813Z,24.70
2017-09-18T21:37:12.881Z,21.60
2017-09-18T21:39:41.216Z,24.93
2017-09-18T21:42:09.584Z,23.20
2017-09-18T21:44:39.388Z,30.63
2017-09-18T21:47:07.675Z,24.10
2017-09-18T21:49:37.367Z,23.67
2017-09-18T21:52:05.923Z,21.97
2017-09-18T21:54:35.566Z,23.57
2017-09-18T21:57:04.183Z,23.83
2017-09-18T21:59:36.696Z,25.37
2017-09-18T22:02:04.978Z,27.37
2017-09-18T22:04:33.271Z,24.70
2017-09-18T22:07:03.143Z,28.93
2017-09-18T22:09:32.999Z,28.70
2017-09-18T22:12:02.631Z,24.93
2017-09-18T22:14:32.351Z,26.17
2017-09-18T22:17:00.659Z,30.77
2017-09-18T22:19:28.955Z,27.70
2017-09-18T22:21:57.311Z,29.80
2017-09-18T22:24:25.599Z,26.23
2017-09-18T22:26:55.391Z,31.80
2017-09-18T22:29:23.743Z,27.00
2017-09-18T22:31:52.035Z,28.17
2017-09-18T22:34:21.831Z,27.17
2017-09-18T22:36:51.523Z,32.53
2017-09-18T22:39:20.089Z,28.50
2017-09-18T22:41:49.515Z,31.00
2017-09-18T22:44:17.854Z,36.60
2017-09-18T22:46:46.912Z,32.27
2017-09-18T22:49:15.211Z,36.00
2017-09-18T22:51:44.433Z,33.33
2017-09-18T22:54:12.740Z,33.70
2017-09-18T22:56:42.547Z,41.60
2017-09-18T22:59:10.920Z,38.10
2017-09-18T23:01:39.246Z,34.70
2017-09-18T23:04:07.544Z,40.10
2017-09-18T23:06:35.915Z,49.97
2017-09-18T23:09:04.977Z,44.73
2017-09-18T23:11:34.075Z,45.10
2017-09-18T23:14:03.962Z,46.30
2017-09-18T23:16:32.251Z,44.30
2017-09-18T23:19:01.682Z,41.37
2017-09-18T23:21:30.488Z,42.53
2017-09-18T23:23:58.800Z,39.30
2017-09-18T23:26:27.120Z,43.83
2017-09-18T23:28:57.059Z,37.53
2017-09-18T23:31:25.351Z,40.10
2017-09-18T23:33:54.038Z,40.20
2017-09-18T23:36:22.382Z,44.50
2017-09-18T23:38:51.451Z,39.30
2017-09-18T23:41:19.774Z,41.47
2017-09-18T23:43:49.471Z,39.40
2017-09-18T23:46:17.638Z,46.57
2017-09-18T23:48:46.698Z,46.33
2017-09-18T23:51:15.083Z,42.63
2017-09-18T23:53:43.396Z,39.57
2017-09-18T23:56:11.709Z,38.57
2017-09-18T23:58:40.067Z,45.33
